Powhatan Point, Ohio
Current Conditions -  °F | °C
As of 5:53 AM on Wednesday 26 Nov 2014 (Local Time) from KHLG Reporting Station
Clear Clear  
Wind Chill: 22°   Ceiling: Unl
Heat Index: 30°   Visibility: 10mi
Dew Point: 24°   Wind: 8mph
Humidity: 79%   Direction: 50°NE
Pressure: 30.04"   Gusts: NA
Location:  39.86°N, 80.82°W
Report Text: KHLG 261053Z AUTO 05007KT 10SM CLR M01/M04 A3004 RMK AO2 SLP185 T10111044
Loading
Personal Weather Stations






























Interactive Weather Map New forecast layout! Learn more

10-Day Weather Forecast

Advertisements
Track Severe Weather on mobile